createdAt,value
2018-06-14T00:00:00.215Z,793.89
2018-06-14T00:00:04.415Z,793.88
2018-06-14T00:00:08.622Z,793.88
2018-06-14T00:00:12.830Z,793.88
2018-06-14T00:00:16.928Z,793.87
2018-06-14T00:00:21.131Z,793.86
2018-06-14T00:00:25.230Z,793.84
2018-06-14T00:00:29.225Z,793.85
2018-06-14T00:00:33.550Z,793.82
2018-06-14T00:00:37.431Z,793.85
2018-06-14T00:00:41.639Z,793.83
2018-06-14T00:00:45.736Z,793.81
2018-06-14T00:00:49.989Z,793.8
2018-06-14T00:00:54.310Z,793.84
2018-06-14T00:00:58.625Z,793.86
2018-06-14T00:01:02.809Z,793.83
2018-06-14T00:01:06.695Z,793.8
2018-06-14T00:01:10.905Z,793.85
2018-06-14T00:01:15.225Z,793.85
2018-06-14T00:01:19.440Z,793.82
2018-06-14T00:01:23.759Z,793.81
2018-06-14T00:01:27.858Z,793.82
2018-06-14T00:01:32.068Z,793.84
2018-06-14T00:01:36.175Z,793.82
2018-06-14T00:01:40.380Z,793.82
2018-06-14T00:01:44.588Z,793.82
2018-06-14T00:01:48.908Z,793.83
2018-06-14T00:01:53.121Z,793.8
2018-06-14T00:01:57.226Z,793.83
2018-06-14T00:02:01.320Z,793.78
2018-06-14T00:02:05.420Z,793.81
2018-06-14T00:02:09.733Z,793.79
2018-06-14T00:02:13.828Z,793.85
2018-06-14T00:02:18.142Z,793.8
2018-06-14T00:02:22.458Z,793.81
2018-06-14T00:02:26.660Z,793.83
2018-06-14T00:02:30.757Z,793.81
2018-06-14T00:02:34.964Z,793.82
2018-06-14T00:02:39.281Z,793.82
2018-06-14T00:02:43.482Z,793.78
2018-06-14T00:02:47.796Z,793.76
2018-06-14T00:02:52.006Z,793.85
2018-06-14T00:02:56.004Z,793.8
2018-06-14T00:03:00.216Z,793.79
2018-06-14T00:03:04.216Z,793.82
2018-06-14T00:03:08.540Z,793.82
2018-06-14T00:03:12.644Z,793.78
2018-06-14T00:03:16.958Z,793.81
2018-06-14T00:03:21.067Z,793.79
2018-06-14T00:03:25.272Z,793.73
2018-06-14T00:03:29.476Z,793.79
2018-06-14T00:03:33.681Z,793.76
2018-06-14T00:03:37.884Z,793.78
2018-06-14T00:03:42.093Z,793.78
2018-06-14T00:03:46.296Z,793.79
2018-06-14T00:03:50.499Z,793.79
2018-06-14T00:03:54.709Z,793.78
2018-06-14T00:03:58.917Z,793.78
2018-06-14T00:04:02.914Z,793.73
2018-06-14T00:04:07.006Z,793.79
2018-06-14T00:04:11.403Z,793.76
2018-06-14T00:04:15.665Z,793.77
2018-06-14T00:04:19.986Z,793.75
2018-06-14T00:04:24.192Z,793.75
2018-06-14T00:04:28.293Z,793.74
2018-06-14T00:04:32.622Z,793.74
2018-06-14T00:04:36.938Z,793.78
2018-06-14T00:04:41.040Z,793.78
2018-06-14T00:04:45.345Z,793.77
2018-06-14T00:04:49.441Z,793.76
2018-06-14T00:04:53.647Z,793.75
2018-06-14T00:04:57.746Z,793.75
2018-06-14T00:05:01.953Z,793.74
2018-06-14T00:05:05.942Z,793.74
2018-06-14T00:05:10.050Z,793.76
2018-06-14T00:05:14.260Z,793.69
2018-06-14T00:05:18.469Z,793.74
2018-06-14T00:05:22.614Z,793.73
2018-06-14T00:05:26.821Z,793.73
2018-06-14T00:05:31.136Z,793.73
2018-06-14T00:05:35.346Z,793.72
2018-06-14T00:05:39.553Z,793.73
2018-06-14T00:05:43.870Z,793.72
2018-06-14T00:05:47.975Z,793.67
2018-06-14T00:05:52.291Z,793.73
2018-06-14T00:05:56.393Z,793.72
2018-06-14T00:06:00.503Z,793.7
2018-06-14T00:06:04.602Z,793.69
2018-06-14T00:06:08.820Z,793.71
2018-06-14T00:06:13.030Z,793.71
2018-06-14T00:06:17.346Z,793.72
2018-06-14T00:06:21.661Z,793.72
2018-06-14T00:06:25.977Z,793.7
2018-06-14T00:06:30.300Z,793.72
2018-06-14T00:06:34.512Z,793.72
2018-06-14T00:06:38.835Z,793.71
2018-06-14T00:06:43.042Z,793.7
2018-06-14T00:06:47.044Z,793.69
2018-06-14T00:06:51.040Z,793.71
2018-06-14T00:06:55.354Z,793.69
2018-06-14T00:06:59.568Z,793.69
2018-06-14T00:07:03.989Z,793.72
2018-06-14T00:07:07.977Z,793.68
2018-06-14T00:07:12.181Z,793.64
2018-06-14T00:07:16.173Z,793.62
2018-06-14T00:07:20.286Z,793.64
2018-06-14T00:07:24.492Z,793.63
2018-06-14T00:07:28.714Z,793.67
2018-06-14T00:07:32.925Z,793.66
2018-06-14T00:07:37.239Z,793.69
2018-06-14T00:07:41.553Z,793.7
2018-06-14T00:07:45.651Z,793.66
2018-06-14T00:07:49.852Z,793.68
2018-06-14T00:07:54.054Z,793.69
2018-06-14T00:07:58.371Z,793.69
2018-06-14T00:08:02.680Z,793.68
2018-06-14T00:08:06.988Z,793.68
2018-06-14T00:08:10.983Z,793.67
2018-06-14T00:08:15.192Z,793.67
2018-06-14T00:08:19.404Z,793.67
2018-06-14T00:08:23.611Z,793.69
2018-06-14T00:08:27.709Z,793.68
2018-06-14T00:08:31.915Z,793.65
2018-06-14T00:08:36.126Z,793.68
2018-06-14T00:08:40.116Z,793.68
2018-06-14T00:08:44.431Z,793.66
2018-06-14T00:08:48.536Z,793.63
2018-06-14T00:08:52.741Z,793.67
2018-06-14T00:08:56.943Z,793.66
2018-06-14T00:09:00.931Z,793.66
2018-06-14T00:09:04.918Z,793.65
2018-06-14T00:09:09.124Z,793.65
2018-06-14T00:09:13.435Z,793.63
2018-06-14T00:09:17.438Z,793.58
2018-06-14T00:09:21.746Z,793.6
2018-06-14T00:09:25.846Z,793.59
2018-06-14T00:09:29.736Z,793.64
2018-06-14T00:09:34.044Z,793.64
2018-06-14T00:09:38.261Z,793.61
2018-06-14T00:09:42.247Z,793.63
2018-06-14T00:09:46.568Z,793.58
2018-06-14T00:09:50.673Z,793.59
2018-06-14T00:09:54.880Z,793.59
2018-06-14T00:09:59.093Z,793.62
2018-06-14T00:10:03.415Z,793.62
2018-06-14T00:10:07.508Z,793.61
2018-06-14T00:10:11.398Z,793.63
2018-06-14T00:10:15.607Z,793.62
2018-06-14T00:10:19.921Z,793.59
2018-06-14T00:10:23.919Z,793.61
2018-06-14T00:10:28.131Z,793.59
2018-06-14T00:10:32.356Z,793.6
2018-06-14T00:10:36.664Z,793.6
2018-06-14T00:10:40.874Z,793.59
2018-06-14T00:10:44.977Z,793.61
2018-06-14T00:10:49.177Z,793.58
2018-06-14T00:10:53.268Z,793.59
2018-06-14T00:10:57.614Z,793.59
2018-06-14T00:11:01.921Z,793.61
2018-06-14T00:11:06.017Z,793.6
2018-06-14T00:11:10.109Z,793.59
2018-06-14T00:11:14.425Z,793.6
2018-06-14T00:11:18.735Z,793.58
2018-06-14T00:11:22.840Z,793.6
2018-06-14T00:11:27.041Z,793.56
2018-06-14T00:11:31.136Z,793.53
2018-06-14T00:11:35.351Z,793.59
2018-06-14T00:11:39.671Z,793.56
2018-06-14T00:11:43.868Z,793.55
2018-06-14T00:11:47.968Z,793.53
2018-06-14T00:11:52.171Z,793.56
2018-06-14T00:11:56.489Z,793.5
2018-06-14T00:12:00.692Z,793.5
2018-06-14T00:12:04.909Z,793.55
2018-06-14T00:12:09.128Z,793.53
2018-06-14T00:12:13.450Z,793.53
2018-06-14T00:12:17.545Z,793.54
2018-06-14T00:12:21.641Z,793.56
2018-06-14T00:12:25.953Z,793.51
2018-06-14T00:12:30.269Z,793.51
2018-06-14T00:12:34.265Z,793.53
2018-06-14T00:12:38.469Z,793.52
2018-06-14T00:12:42.674Z,793.52
2018-06-14T00:12:46.882Z,793.51
2018-06-14T00:12:51.190Z,793.52
2018-06-14T00:12:55.388Z,793.5
2018-06-14T00:12:59.484Z,793.5
2018-06-14T00:13:03.525Z,793.51
2018-06-14T00:13:07.528Z,793.45
2018-06-14T00:13:11.839Z,793.52
2018-06-14T00:13:16.043Z,793.51
2018-06-14T00:13:20.137Z,793.48
2018-06-14T00:13:24.455Z,793.45
2018-06-14T00:13:28.446Z,793.46
2018-06-14T00:13:32.764Z,793.44
2018-06-14T00:13:36.864Z,793.49
2018-06-14T00:13:41.194Z,793.44
2018-06-14T00:13:45.399Z,793.46
2018-06-14T00:13:49.493Z,793.49
2018-06-14T00:13:53.804Z,793.49
2018-06-14T00:13:57.900Z,793.5
2018-06-14T00:14:01.889Z,793.5
2018-06-14T00:14:05.879Z,793.49
2018-06-14T00:14:09.974Z,793.46
2018-06-14T00:14:14.172Z,793.45
2018-06-14T00:14:18.394Z,793.45
2018-06-14T00:14:22.734Z,793.48
2018-06-14T00:14:26.724Z,793.47
2018-06-14T00:14:30.929Z,793.45
2018-06-14T00:14:35.236Z,793.49
2018-06-14T00:14:39.441Z,793.47
2018-06-14T00:14:43.641Z,793.48
2018-06-14T00:14:47.850Z,793.49
2018-06-14T00:14:52.201Z,793.45
2018-06-14T00:14:56.409Z,793.47
2018-06-14T00:15:00.725Z,793.47
2018-06-14T00:15:04.720Z,793.49
2018-06-14T00:15:09.028Z,793.48
2018-06-14T00:15:13.140Z,793.47
2018-06-14T00:15:17.343Z,793.46
2018-06-14T00:15:21.654Z,793.47
2018-06-14T00:15:25.861Z,793.44
2018-06-14T00:15:30.176Z,793.45
2018-06-14T00:15:34.486Z,793.44
2018-06-14T00:15:38.713Z,793.44
2018-06-14T00:15:42.918Z,793.41
2018-06-14T00:15:47.120Z,793.46
2018-06-14T00:15:51.439Z,793.46
2018-06-14T00:15:55.536Z,793.45
2018-06-14T00:15:59.642Z,793.43
2018-06-14T00:16:03.736Z,793.44
2018-06-14T00:16:07.628Z,793.44
2018-06-14T00:16:11.729Z,793.42
2018-06-14T00:16:15.830Z,793.44
2018-06-14T00:16:19.936Z,793.43
2018-06-14T00:16:24.244Z,793.41
2018-06-14T00:17:00.447Z,793.41
2018-06-14T00:17:04.802Z,793.43
2018-06-14T00:17:08.896Z,793.41
2018-06-14T00:17:13.095Z,793.38
2018-06-14T00:17:17.193Z,793.38
2018-06-14T00:17:21.689Z,793.43
2018-06-14T00:17:26.386Z,793.42
2018-06-14T00:17:30.671Z,793.43
2018-06-14T00:17:34.822Z,793.38
2018-06-14T00:17:39.031Z,793.38
2018-06-14T00:17:43.354Z,793.38
2018-06-14T00:17:47.560Z,793.43
2018-06-14T00:17:51.665Z,793.4
2018-06-14T00:17:55.866Z,793.41
2018-06-14T00:18:00.073Z,793.4
2018-06-14T00:18:04.284Z,793.42
2018-06-14T00:18:08.595Z,793.41
2018-06-14T00:18:12.692Z,793.41
2018-06-14T00:18:17.004Z,793.37
2018-06-14T00:18:21.209Z,793.39
2018-06-14T00:18:25.415Z,793.4
2018-06-14T00:18:29.621Z,793.38
2018-06-14T00:18:33.718Z,793.4
2018-06-14T00:18:37.935Z,793.41
2018-06-14T00:18:42.032Z,793.38
2018-06-14T00:18:46.128Z,793.38
2018-06-14T00:18:50.228Z,793.39
2018-06-14T00:18:54.427Z,793.41
2018-06-14T00:18:58.628Z,793.39
2018-06-14T00:19:02.722Z,793.37
2018-06-14T00:19:06.818Z,793.33
2018-06-14T00:19:11.020Z,793.37
2018-06-14T00:19:15.336Z,793.39
2018-06-14T00:19:19.659Z,793.37
2018-06-14T00:19:23.756Z,793.39
2018-06-14T00:19:27.636Z,793.36
2018-06-14T00:19:31.938Z,793.38
2018-06-14T00:19:36.149Z,793.37
2018-06-14T00:19:40.460Z,793.38
2018-06-14T00:19:44.565Z,793.39
2018-06-14T00:19:48.770Z,793.4
2018-06-14T00:19:52.977Z,793.42
2018-06-14T00:19:57.295Z,793.38
2018-06-14T00:20:01.402Z,793.38
2018-06-14T00:20:05.539Z,793.4
2018-06-14T00:20:09.640Z,793.37
2018-06-14T00:20:13.853Z,793.33
2018-06-14T00:20:18.167Z,793.34
2018-06-14T00:20:22.268Z,793.38
2018-06-14T00:20:26.478Z,793.37
2018-06-14T00:20:30.790Z,793.37
2018-06-14T00:20:35.110Z,793.4
2018-06-14T00:20:39.322Z,793.36
2018-06-14T00:20:43.313Z,793.36
2018-06-14T00:20:47.417Z,793.34
2018-06-14T00:20:51.622Z,793.36
2018-06-14T00:20:55.718Z,793.36
2018-06-14T00:20:59.810Z,793.39
2018-06-14T00:21:04.072Z,793.36
2018-06-14T00:21:08.386Z,793.36
2018-06-14T00:21:12.590Z,793.38
2018-06-14T00:21:16.685Z,793.35
2018-06-14T00:21:20.996Z,793.37
2018-06-14T00:21:25.317Z,793.34
2018-06-14T00:21:29.641Z,793.34
2018-06-14T00:21:33.952Z,793.36
2018-06-14T00:21:38.048Z,793.35
2018-06-14T00:21:42.151Z,793.36
2018-06-14T00:21:46.474Z,793.37
2018-06-14T00:21:50.676Z,793.32
2018-06-14T00:21:54.776Z,793.35
2018-06-14T00:21:59.090Z,793.28
2018-06-14T00:22:03.296Z,793.36
2018-06-14T00:22:07.609Z,793.33
2018-06-14T00:22:11.815Z,793.34
2018-06-14T00:22:15.918Z,793.35
2018-06-14T00:22:20.127Z,793.39
2018-06-14T00:22:24.441Z,793.34
2018-06-14T00:22:28.651Z,793.38
2018-06-14T00:22:32.865Z,793.35
2018-06-14T00:22:37.183Z,793.37
2018-06-14T00:22:41.283Z,793.35
2018-06-14T00:22:45.268Z,793.34
2018-06-14T00:22:49.468Z,793.35
2018-06-14T00:22:53.800Z,793.31
2018-06-14T00:22:58.000Z,793.3
2018-06-14T00:23:02.203Z,793.33
2018-06-14T00:23:06.195Z,793.37
2018-06-14T00:23:10.403Z,793.39
2018-06-14T00:23:14.709Z,793.36
2018-06-14T00:23:19.024Z,793.36
2018-06-14T00:23:23.223Z,793.31
2018-06-14T00:23:27.537Z,793.35
2018-06-14T00:23:31.740Z,793.36
2018-06-14T00:23:36.051Z,793.32
2018-06-14T00:23:40.252Z,793.36
2018-06-14T00:23:44.348Z,793.34
2018-06-14T00:23:48.444Z,793.36
2018-06-14T00:23:52.663Z,793.32
2018-06-14T00:23:56.767Z,793.37
2018-06-14T00:24:00.862Z,793.34
2018-06-14T00:24:05.068Z,793.35
2018-06-14T00:24:09.168Z,793.35
2018-06-14T00:24:13.477Z,793.36
2018-06-14T00:24:17.823Z,793.38
2018-06-14T00:24:22.022Z,793.37
2018-06-14T00:24:26.234Z,793.39
2018-06-14T00:24:30.331Z,793.36
2018-06-14T00:24:34.638Z,793.37
2018-06-14T00:24:38.953Z,793.36
2018-06-14T00:24:43.059Z,793.33
2018-06-14T00:24:47.264Z,793.37
2018-06-14T00:24:51.357Z,793.32
2018-06-14T00:24:55.560Z,793.33
2018-06-14T00:24:59.660Z,793.35
2018-06-14T00:25:03.654Z,793.35
2018-06-14T00:25:07.862Z,793.31
2018-06-14T00:25:12.076Z,793.32
2018-06-14T00:25:16.276Z,793.32
2018-06-14T00:25:20.634Z,793.32
2018-06-14T00:25:24.836Z,793.32
2018-06-14T00:25:28.948Z,793.3
2018-06-14T00:25:33.160Z,793.33
2018-06-14T00:25:37.257Z,793.33
2018-06-14T00:25:41.577Z,793.33
2018-06-14T00:25:45.783Z,793.28
2018-06-14T00:25:49.875Z,793.3
2018-06-14T00:25:54.187Z,793.31
2018-06-14T00:25:58.285Z,793.29
2018-06-14T00:26:02.592Z,793.35
2018-06-14T00:26:06.583Z,793.3
2018-06-14T00:26:10.581Z,793.29
2018-06-14T00:26:14.896Z,793.25
2018-06-14T00:26:19.000Z,793.26
2018-06-14T00:26:23.092Z,793.28
2018-06-14T00:26:27.199Z,793.31
2018-06-14T00:26:31.410Z,793.28
2018-06-14T00:26:35.611Z,793.3
2018-06-14T00:26:39.811Z,793.31
2018-06-14T00:26:43.813Z,793.31
2018-06-14T00:26:48.022Z,793.32
2018-06-14T00:26:52.340Z,793.3
2018-06-14T00:26:56.545Z,793.3
2018-06-14T00:27:00.755Z,793.31
2018-06-14T00:27:04.867Z,793.32
2018-06-14T00:27:08.970Z,793.3
2018-06-14T00:27:13.179Z,793.29
2018-06-14T00:27:17.389Z,793.29
2018-06-14T00:27:21.489Z,793.33
2018-06-14T00:27:25.689Z,793.29
2018-06-14T00:27:29.894Z,793.3
2018-06-14T00:27:34.101Z,793.27
2018-06-14T00:27:38.197Z,793.31
2018-06-14T00:27:42.396Z,793.3
2018-06-14T00:27:46.491Z,793.34
2018-06-14T00:27:50.693Z,793.3
2018-06-14T00:27:55.004Z,793.3
2018-06-14T00:27:59.202Z,793.29
2018-06-14T00:28:03.576Z,793.32
2018-06-14T00:28:07.884Z,793.3
2018-06-14T00:28:11.883Z,793.28
2018-06-14T00:28:16.199Z,793.23
2018-06-14T00:28:20.292Z,793.28
2018-06-14T00:28:24.386Z,793.28
2018-06-14T00:28:28.482Z,793.31
2018-06-14T00:28:32.844Z,793.25
2018-06-14T00:28:36.944Z,793.28
2018-06-14T00:28:41.142Z,793.28
2018-06-14T00:28:45.238Z,793.26
2018-06-14T00:28:49.227Z,793.22
2018-06-14T00:28:53.537Z,793.27
2018-06-14T00:28:57.739Z,793.28
2018-06-14T00:29:01.947Z,793.23
2018-06-14T00:29:05.942Z,793.23
2018-06-14T00:29:10.150Z,793.25
2018-06-14T00:29:14.482Z,793.26
2018-06-14T00:29:18.689Z,793.23
2018-06-14T00:29:22.787Z,793.26
2018-06-14T00:29:26.669Z,793.27
2018-06-14T00:29:30.766Z,793.24
2018-06-14T00:29:35.071Z,793.25
2018-06-14T00:29:39.380Z,793.24
2018-06-14T00:29:43.478Z,793.23
2018-06-14T00:29:47.680Z,793.24
2018-06-14T00:29:51.882Z,793.25
2018-06-14T00:29:56.083Z,793.26
2018-06-14T00:30:00.178Z,793.23
2018-06-14T00:30:04.168Z,793.24
2018-06-14T00:30:08.270Z,793.22
2018-06-14T00:30:12.371Z,793.24
2018-06-14T00:30:16.674Z,793.23
2018-06-14T00:30:20.773Z,793.22
2018-06-14T00:30:25.083Z,793.25
2018-06-14T00:30:29.404Z,793.21
2018-06-14T00:30:33.504Z,793.17
2018-06-14T00:30:37.824Z,793.25
2018-06-14T00:30:42.141Z,793.22
2018-06-14T00:30:46.345Z,793.22
2018-06-14T00:30:50.337Z,793.22
2018-06-14T00:30:54.544Z,793.23
2018-06-14T00:30:58.751Z,793.23
2018-06-14T00:31:02.979Z,793.17
2018-06-14T00:31:06.966Z,793.14
2018-06-14T00:31:11.165Z,793.16
2018-06-14T00:31:15.502Z,793.19
2018-06-14T00:31:19.599Z,793.21
2018-06-14T00:31:23.808Z,793.22
2018-06-14T00:31:28.117Z,793.21
2018-06-14T00:31:32.329Z,793.16
2018-06-14T00:31:36.648Z,793.21
2018-06-14T00:31:40.854Z,793.19
2018-06-14T00:31:45.177Z,793.2
2018-06-14T00:31:49.380Z,793.21
2018-06-14T00:31:53.694Z,793.23
2018-06-14T00:31:58.009Z,793.16
2018-06-14T00:32:02.270Z,793.16
2018-06-14T00:32:06.271Z,793.17
2018-06-14T00:32:10.360Z,793.2
2018-06-14T00:32:14.511Z,793.2
2018-06-14T00:32:18.719Z,793.18
2018-06-14T00:32:23.027Z,793.17
2018-06-14T00:32:27.013Z,793.21
2018-06-14T00:32:31.111Z,793.18
2018-06-14T00:32:35.312Z,793.17
2018-06-14T00:32:39.426Z,793.18
2018-06-14T00:32:43.625Z,793.19
2018-06-14T00:32:47.830Z,793.19
2018-06-14T00:32:51.933Z,793.19
2018-06-14T00:32:56.239Z,793.17
2018-06-14T00:33:00.576Z,793.21
2018-06-14T00:33:04.674Z,793.2
2018-06-14T00:33:08.662Z,793.18
2018-06-14T00:33:12.650Z,793.18
2018-06-14T00:33:16.748Z,793.17
2018-06-14T00:33:20.841Z,793.21
2018-06-14T00:33:25.159Z,793.2
2018-06-14T00:33:29.475Z,793.2
2018-06-14T00:33:33.678Z,793.19
2018-06-14T00:33:37.878Z,793.18
2018-06-14T00:33:42.186Z,793.17
2018-06-14T00:33:46.497Z,793.19
2018-06-14T00:33:50.741Z,793.15
2018-06-14T00:33:54.954Z,793.16
2018-06-14T00:33:59.262Z,793.21
2018-06-14T00:34:03.257Z,793.18
2018-06-14T00:34:07.366Z,793.18
2018-06-14T00:34:11.571Z,793.17
2018-06-14T00:34:15.877Z,793.16
2018-06-14T00:34:20.130Z,793.18
2018-06-14T00:34:24.226Z,793.18
2018-06-14T00:34:28.436Z,793.14
2018-06-14T00:34:32.527Z,793.17
2018-06-14T00:34:36.728Z,793.15
2018-06-14T00:34:40.720Z,793.18
2018-06-14T00:34:44.924Z,793.14
2018-06-14T00:34:49.229Z,793.14
2018-06-14T00:34:53.550Z,793.17
2018-06-14T00:34:57.647Z,793.16
2018-06-14T00:35:01.849Z,793.15
2018-06-14T00:35:05.993Z,793.17
2018-06-14T00:35:10.096Z,793.15
2018-06-14T00:35:14.297Z,793.15
2018-06-14T00:35:18.617Z,793.14
2018-06-14T00:35:22.820Z,793.09
2018-06-14T00:35:27.130Z,793.13
2018-06-14T00:35:31.330Z,793.18
2018-06-14T00:35:35.427Z,793.15
2018-06-14T00:35:39.734Z,793.14
2018-06-14T00:35:44.051Z,793.17
2018-06-14T00:35:48.148Z,793.12
2018-06-14T00:35:52.345Z,793.1
2018-06-14T00:35:56.648Z,793.14
2018-06-14T00:36:00.638Z,793.12
2018-06-14T00:36:04.429Z,793.1
2018-06-14T00:36:08.417Z,793.13
2018-06-14T00:36:12.627Z,793.14
2018-06-14T00:36:16.829Z,793.15
2018-06-14T00:36:21.035Z,793.15
2018-06-14T00:36:25.347Z,793.14
2018-06-14T00:36:29.444Z,793.12
2018-06-14T00:36:33.768Z,793.12
2018-06-14T00:36:38.079Z,793.14
2018-06-14T00:36:42.395Z,793.05
2018-06-14T00:36:46.607Z,793.08
2018-06-14T00:36:50.913Z,793.14
2018-06-14T00:36:55.003Z,793.13
2018-06-14T00:36:59.099Z,793.07
2018-06-14T00:37:03.297Z,793.12
2018-06-14T00:37:07.405Z,793.07
2018-06-14T00:37:11.611Z,793.06
2018-06-14T00:37:15.718Z,793.09
2018-06-14T00:37:19.917Z,793.12
2018-06-14T00:37:24.119Z,793.13
2018-06-14T00:37:28.422Z,793.1
2018-06-14T00:37:32.737Z,793.09
2018-06-14T00:37:37.045Z,793.11
2018-06-14T00:37:41.149Z,793.14
2018-06-14T00:37:45.465Z,793.1
2018-06-14T00:37:49.775Z,793.09
2018-06-14T00:37:54.085Z,793.12
2018-06-14T00:37:58.398Z,793.12
2018-06-14T00:38:02.401Z,793.08
2018-06-14T00:38:06.395Z,793.11
2018-06-14T00:38:10.699Z,793.06
2018-06-14T00:38:14.908Z,793.1
2018-06-14T00:38:19.153Z,793.09
2018-06-14T00:38:23.468Z,793.06
2018-06-14T00:38:27.679Z,793.06
2018-06-14T00:38:31.932Z,793.06
2018-06-14T00:38:36.240Z,793.1
2018-06-14T00:38:40.449Z,793.05
2018-06-14T00:38:44.657Z,793.06
2018-06-14T00:38:48.757Z,793.06
2018-06-14T00:38:52.958Z,793.04
2018-06-14T00:38:57.269Z,793.08
2018-06-14T00:39:01.481Z,793.07
2018-06-14T00:39:05.579Z,793.07
2018-06-14T00:39:09.785Z,793.05
2018-06-14T00:39:14.098Z,793.04
2018-06-14T00:39:18.303Z,793.06
2018-06-14T00:39:22.617Z,793.05
2018-06-14T00:39:26.604Z,793.08
2018-06-14T00:39:30.857Z,793.06
2018-06-14T00:39:35.167Z,793.05
2018-06-14T00:39:39.373Z,793.08
2018-06-14T00:39:43.578Z,793.05
2018-06-14T00:39:47.789Z,793.07
2018-06-14T00:39:51.991Z,793.1
2018-06-14T00:39:56.296Z,793.06
2018-06-14T00:40:00.605Z,793.06
2018-06-14T00:40:04.768Z,793.05
2018-06-14T00:40:09.225Z,793.08
2018-06-14T00:40:13.817Z,793.04
2018-06-14T00:40:18.306Z,793.04
2018-06-14T00:40:22.514Z,793.05
2018-06-14T00:40:26.717Z,793.1
2018-06-14T00:40:31.036Z,793.06
2018-06-14T00:40:35.237Z,793.05
2018-06-14T00:40:39.549Z,793.06
2018-06-14T00:40:43.657Z,793.05
2018-06-14T00:40:47.973Z,793.04
2018-06-14T00:40:52.170Z,793
2018-06-14T00:40:56.381Z,793.04
2018-06-14T00:41:00.691Z,793.04
2018-06-14T00:41:04.995Z,793.02
2018-06-14T00:41:09.092Z,793.08
2018-06-14T00:41:13.406Z,793.04
2018-06-14T00:41:17.507Z,793.04
2018-06-14T00:41:21.711Z,793.06
2018-06-14T00:41:25.920Z,793.01
2018-06-14T00:41:30.127Z,792.99
2018-06-14T00:41:34.229Z,793
2018-06-14T00:41:38.321Z,793.02
2018-06-14T00:41:42.417Z,792.99
2018-06-14T00:41:46.410Z,792.96
2018-06-14T00:41:50.622Z,793.02
2018-06-14T00:41:54.933Z,793.03
2018-06-14T00:41:59.141Z,793.06
2018-06-14T00:42:03.233Z,793.02
2018-06-14T00:42:07.544Z,793.02
2018-06-14T00:42:11.639Z,793.01
2018-06-14T00:42:15.845Z,792.99
2018-06-14T00:42:20.051Z,793
2018-06-14T00:42:23.944Z,793
2018-06-14T00:42:27.933Z,792.99
2018-06-14T00:42:32.029Z,792.98
2018-06-14T00:42:36.336Z,792.97
2018-06-14T00:42:40.330Z,793.01
2018-06-14T00:42:44.542Z,793.03
2018-06-14T00:42:48.760Z,792.98
2018-06-14T00:42:52.968Z,793.03
2018-06-14T00:42:57.291Z,792.97
2018-06-14T00:43:01.610Z,792.99
2018-06-14T00:43:05.826Z,793.01
2018-06-14T00:43:09.923Z,792.99
2018-06-14T00:43:14.014Z,792.95
2018-06-14T00:43:18.213Z,792.94
2018-06-14T00:43:22.525Z,793
2018-06-14T00:43:26.729Z,792.99
2018-06-14T00:43:30.933Z,792.98
2018-06-14T00:43:35.249Z,793.03
2018-06-14T00:43:39.449Z,792.99
2018-06-14T00:43:43.437Z,792.95
2018-06-14T00:43:47.645Z,792.95
2018-06-14T00:43:51.956Z,793.02
2018-06-14T00:43:56.100Z,793.01
2018-06-14T00:44:00.311Z,793.02
2018-06-14T00:44:04.515Z,792.96
2018-06-14T00:44:08.823Z,793
2018-06-14T00:44:13.127Z,793
2018-06-14T00:44:17.328Z,792.98
2018-06-14T00:44:21.534Z,792.96
2018-06-14T00:44:25.629Z,793
2018-06-14T00:44:29.832Z,793
2018-06-14T00:44:34.040Z,793.03
2018-06-14T00:44:38.253Z,792.99
2018-06-14T00:44:42.348Z,792.98
2018-06-14T00:44:46.651Z,792.97
2018-06-14T00:44:50.752Z,792.96
2018-06-14T00:44:54.845Z,792.96
2018-06-14T00:44:59.164Z,792.97
2018-06-14T00:45:03.475Z,792.96
2018-06-14T00:45:07.465Z,792.99
2018-06-14T00:45:11.362Z,792.97
2018-06-14T00:45:15.669Z,792.94
2018-06-14T00:45:19.977Z,792.99
2018-06-14T00:45:24.179Z,792.97
2018-06-14T00:45:28.494Z,792.99
2018-06-14T00:45:32.493Z,792.96
2018-06-14T00:45:36.697Z,792.99
2018-06-14T00:45:40.905Z,793
2018-06-14T00:45:44.999Z,792.98
2018-06-14T00:45:49.099Z,792.97
2018-06-14T00:45:53.413Z,793
2018-06-14T00:45:57.514Z,793
2018-06-14T00:46:01.828Z,792.97
2018-06-14T00:46:06.035Z,792.97
2018-06-14T00:46:10.038Z,792.96
2018-06-14T00:46:14.355Z,792.94
2018-06-14T00:46:18.668Z,792.95
2018-06-14T00:46:22.878Z,792.98
2018-06-14T00:46:27.191Z,792.97
2018-06-14T00:46:31.506Z,792.96
2018-06-14T00:46:35.712Z,792.97
2018-06-14T00:46:39.920Z,792.99
2018-06-14T00:46:44.026Z,792.97
2018-06-14T00:46:48.230Z,792.97
2018-06-14T00:46:52.436Z,792.96
2018-06-14T00:46:56.539Z,792.98
2018-06-14T00:47:00.737Z,793
2018-06-14T00:47:04.728Z,792.95
2018-06-14T00:47:08.827Z,792.96
2018-06-14T00:47:13.139Z,792.97
2018-06-14T00:47:17.237Z,792.98
2018-06-14T00:47:21.230Z,792.94
2018-06-14T00:47:25.542Z,792.92
2018-06-14T00:47:29.751Z,792.98
2018-06-14T00:47:33.959Z,792.97
2018-06-14T00:47:38.322Z,792.98
2018-06-14T00:47:42.638Z,792.97
2018-06-14T00:47:46.951Z,792.98
2018-06-14T00:47:51.260Z,792.96
2018-06-14T00:47:55.574Z,792.93
2018-06-14T00:47:59.778Z,792.99
2018-06-14T00:48:04.096Z,792.96
2018-06-14T00:48:08.299Z,792.94
2018-06-14T00:48:12.506Z,792.95
2018-06-14T00:48:16.828Z,792.96
2018-06-14T00:48:20.812Z,792.94
2018-06-14T00:48:24.905Z,792.91
2018-06-14T00:48:29.108Z,792.96
2018-06-14T00:48:33.205Z,792.97
2018-06-14T00:48:37.409Z,792.95
2018-06-14T00:48:41.620Z,792.89
2018-06-14T00:48:45.935Z,792.96
2018-06-14T00:48:50.034Z,792.93
2018-06-14T00:48:54.236Z,792.9
2018-06-14T00:48:58.547Z,792.93
2018-06-14T00:49:02.748Z,792.9
2018-06-14T00:49:06.846Z,792.94
2018-06-14T00:49:10.833Z,792.93
2018-06-14T00:49:15.036Z,792.93
2018-06-14T00:49:19.249Z,792.93
2018-06-14T00:49:23.450Z,792.91
2018-06-14T00:49:27.705Z,792.94
2018-06-14T00:49:31.908Z,792.93
2018-06-14T00:49:36.110Z,792.91
2018-06-14T00:49:40.416Z,792.9
2018-06-14T00:49:44.516Z,792.92
2018-06-14T00:49:48.631Z,792.91
2018-06-14T00:49:52.940Z,792.92
2018-06-14T00:49:57.149Z,792.91
2018-06-14T00:50:01.351Z,792.9
2018-06-14T00:50:05.549Z,792.92
2018-06-14T00:50:09.774Z,792.95
2018-06-14T00:50:13.877Z,792.92
2018-06-14T00:50:18.185Z,792.92
2018-06-14T00:50:22.279Z,792.94
2018-06-14T00:50:26.596Z,792.88
2018-06-14T00:50:30.905Z,792.87
2018-06-14T00:50:35.211Z,792.86
2018-06-14T00:50:39.414Z,792.88
2018-06-14T00:50:43.509Z,792.87
2018-06-14T00:50:47.712Z,792.91
2018-06-14T00:50:52.028Z,792.89
2018-06-14T00:50:56.232Z,792.89
2018-06-14T00:51:00.444Z,792.91
2018-06-14T00:51:04.645Z,792.91
2018-06-14T00:51:08.844Z,792.89
2018-06-14T00:51:13.052Z,792.87
2018-06-14T00:51:17.254Z,792.87
2018-06-14T00:51:21.461Z,792.88
2018-06-14T00:51:25.672Z,792.86
2018-06-14T00:51:29.908Z,792.88
2018-06-14T00:51:34.218Z,792.86
2018-06-14T00:51:38.528Z,792.85
2018-06-14T00:51:42.873Z,792.87
2018-06-14T00:51:46.974Z,792.87
2018-06-14T00:51:51.183Z,792.83
2018-06-14T00:51:55.496Z,792.85
2018-06-14T00:51:59.800Z,792.84
2018-06-14T00:52:03.840Z,792.85
2018-06-14T00:52:07.940Z,792.86
2018-06-14T00:52:11.930Z,792.86
2018-06-14T00:52:16.242Z,792.85
2018-06-14T00:52:20.344Z,792.87
2018-06-14T00:52:24.655Z,792.83
2018-06-14T00:52:28.752Z,792.84
2018-06-14T00:52:32.952Z,792.86
2018-06-14T00:52:37.165Z,792.85
2018-06-14T00:52:41.151Z,792.8
2018-06-14T00:52:45.354Z,792.81
2018-06-14T00:52:49.558Z,792.8
2018-06-14T00:52:53.654Z,792.83
2018-06-14T00:52:57.967Z,792.81
2018-06-14T00:53:01.962Z,792.82